sensor_id;sensor_type;location;lat;lon;timestamp;pressure;altitude;pressure_sealevel;temperature;humidity
60725;BME280;59881;36.722;-4.462;2022-10-16T00:01:21;100378.78;;;13.95;51.97
60725;BME280;59881;36.722;-4.462;2022-10-16T00:03:48;100935.50;;;17.38;52.11
60725;BME280;59881;36.722;-4.462;2022-10-16T00:06:15;100031.78;;;11.81;51.99
60725;BME280;59881;36.722;-4.462;2022-10-16T00:08:41;100938.72;;;17.32;52.11
60725;BME280;59881;36.722;-4.462;2022-10-16T00:11:15;99920.63;;;11.10;51.52
60725;BME280;59881;36.722;-4.462;2022-10-16T00:13:42;100742.22;;;15.99;51.90
60725;BME280;59881;36.722;-4.462;2022-10-16T00:16:09;100936.47;;;17.27;51.85
60725;BME280;59881;36.722;-4.462;2022-10-16T00:18:35;100863.84;;;16.76;51.67
60725;BME280;59881;36.722;-4.462;2022-10-16T00:21:07;101056.84;;;17.31;51.72
60725;BME280;59881;36.722;-4.462;2022-10-16T00:23:33;100938.72;;;17.32;51.42
60725;BME280;59881;36.722;-4.462;2022-10-16T00:26:01;100834.56;;;16.76;51.33
60725;BME280;59881;36.722;-4.462;2022-10-16T00:28:28;100925.13;;;17.35;50.27
60725;BME280;59881;36.722;-4.462;2022-10-16T00:30:54;100124.03;;;12.48;50.23
60725;BME280;59881;36.722;-4.462;2022-10-16T00:33:19;100571.69;;;14.53;49.14
60725;BME280;59881;36.722;-4.462;2022-10-16T00:35:45;100906.94;;;16.61;49.14
60725;BME280;59881;36.722;-4.462;2022-10-16T00:38:11;100815.38;;;16.63;48.76
60725;BME280;59881;36.722;-4.462;2022-10-16T00:40:37;101044.78;;;17.27;48.79
60725;BME280;59881;36.722;-4.462;2022-10-16T00:43:02;100930.44;;;17.25;48.88
60725;BME280;59881;36.722;-4.462;2022-10-16T00:45:28;100335.16;;;13.69;49.04
60725;BME280;59881;36.722;-4.462;2022-10-16T00:47:55;100973.88;;;17.26;48.65
60725;BME280;59881;36.722;-4.462;2022-10-16T00:50:30;100938.28;;;17.27;48.15
60725;BME280;59881;36.722;-4.462;2022-10-16T00:52:57;100916.13;;;17.26;48.08
60725;BME280;59881;36.722;-4.462;2022-10-16T00:55:24;100902.13;;;17.24;48.18
60725;BME280;59881;36.722;-4.462;2022-10-16T00:57:51;100096.66;;;12.28;47.85
60725;BME280;59881;36.722;-4.462;2022-10-16T01:00:23;100901.59;;;17.21;48.34
60725;BME280;59881;36.722;-4.462;2022-10-16T01:02:54;100353.19;;;13.21;48.14
60725;BME280;59881;36.722;-4.462;2022-10-16T01:05:22;100295.84;;;12.69;48.17
60725;BME280;59881;36.722;-4.462;2022-10-16T01:07:56;100883.78;;;17.11;48.57
60725;BME280;59881;36.722;-4.462;2022-10-16T01:10:35;100814.59;;;16.22;48.46
60725;BME280;59881;36.722;-4.462;2022-10-16T01:13:12;99989.38;;;11.73;48.25
60725;BME280;59881;36.722;-4.462;2022-10-16T01:18:37;100844.69;;;17.22;46.29
60725;BME280;59881;36.722;-4.462;2022-10-16T01:21:06;100666.72;;;16.21;45.66
60725;BME280;59881;36.722;-4.462;2022-10-16T01:29:22;100315.56;;;14.12;46.62
60725;BME280;59881;36.722;-4.462;2022-10-16T01:32:00;100461.28;;;14.63;47.12
60725;BME280;59881;36.722;-4.462;2022-10-16T01:35:02;100650.63;;;16.13;47.05
60725;BME280;59881;36.722;-4.462;2022-10-16T01:40:13;100418.34;;;14.48;47.53
60725;BME280;59881;36.722;-4.462;2022-10-16T01:42:44;100843.03;;;17.01;47.64
60725;BME280;59881;36.722;-4.462;2022-10-16T01:45:13;100842.31;;;16.99;47.96
60725;BME280;59881;36.722;-4.462;2022-10-16T01:47:43;100678.47;;;14.97;47.91
60725;BME280;59881;36.722;-4.462;2022-10-16T01:50:10;100833.91;;;16.94;48.48
60725;BME280;59881;36.722;-4.462;2022-10-16T01:52:39;101059.25;;;16.93;48.67
60725;BME280;59881;36.722;-4.462;2022-10-16T01:55:08;99716.00;;;10.12;48.59
60725;BME280;59881;36.722;-4.462;2022-10-16T01:57:38;100399.94;;;13.32;48.88
60725;BME280;59881;36.722;-4.462;2022-10-16T02:00:09;99934.66;;;9.98;48.68
60725;BME280;59881;36.722;-4.462;2022-10-16T02:02:38;100236.69;;;13.02;48.81
60725;BME280;59881;36.722;-4.462;2022-10-16T02:08:10;100978.00;;;16.80;49.24
60725;BME280;59881;36.722;-4.462;2022-10-16T02:10:36;100346.69;;;12.50;48.90
60725;BME280;59881;36.722;-4.462;2022-10-16T02:13:19;100803.63;;;16.75;49.16
60725;BME280;59881;36.722;-4.462;2022-10-16T02:15:47;100800.00;;;16.76;49.29
60725;BME280;59881;36.722;-4.462;2022-10-16T02:18:13;100608.72;;;15.57;49.19
60725;BME280;59881;36.722;-4.462;2022-10-16T02:23:19;100553.97;;;15.15;49.43
60725;BME280;59881;36.722;-4.462;2022-10-16T02:25:50;100402.97;;;14.12;49.39
60725;BME280;59881;36.722;-4.462;2022-10-16T02:28:26;100722.66;;;16.10;49.33
60725;BME280;59881;36.722;-4.462;2022-10-16T02:30:59;100448.34;;;14.49;49.33
60725;BME280;59881;36.722;-4.462;2022-10-16T02:33:26;100404.44;;;13.53;49.24
60725;BME280;59881;36.722;-4.462;2022-10-16T02:35:54;100634.91;;;15.71;49.31
60725;BME280;59881;36.722;-4.462;2022-10-16T02:38:21;100777.69;;;16.58;49.45
60725;BME280;59881;36.722;-4.462;2022-10-16T02:40:47;100889.56;;;16.57;49.35
60725;BME280;59881;36.722;-4.462;2022-10-16T02:43:13;100267.03;;;13.40;49.24
60725;BME280;59881;36.722;-4.462;2022-10-16T02:45:39;100700.72;;;16.08;49.34
60725;BME280;59881;36.722;-4.462;2022-10-16T02:48:05;100367.31;;;13.95;49.08
60725;BME280;59881;36.722;-4.462;2022-10-16T02:50:31;100561.72;;;15.38;48.80
60725;BME280;59881;36.722;-4.462;2022-10-16T02:52:56;100208.13;;;11.65;48.48
60725;BME280;59881;36.722;-4.462;2022-10-16T02:55:22;100352.19;;;14.37;47.62
60725;BME280;59881;36.722;-4.462;2022-10-16T02:57:47;100662.47;;;15.80;48.27
60725;BME280;59881;36.722;-4.462;2022-10-16T03:00:16;100757.44;;;16.96;47.69
60725;BME280;59881;36.722;-4.462;2022-10-16T03:02:42;100582.94;;;15.88;47.54
60725;BME280;59881;36.722;-4.462;2022-10-16T03:05:08;100757.28;;;16.98;47.41
60725;BME280;59881;36.722;-4.462;2022-10-16T03:07:34;100750.56;;;17.03;47.05
60725;BME280;59881;36.722;-4.462;2022-10-16T03:09:59;100820.03;;;17.10;46.82
60725;BME280;59881;36.722;-4.462;2022-10-16T03:12:26;100706.31;;;16.14;46.70
60725;BME280;59881;36.722;-4.462;2022-10-16T03:14:52;100845.25;;;17.25;46.39
60725;BME280;59881;36.722;-4.462;2022-10-16T03:17:17;99349.16;;;7.87;46.17
60725;BME280;59881;36.722;-4.462;2022-10-16T03:19:43;100219.00;;;12.81;46.38
60725;BME280;59881;36.722;-4.462;2022-10-16T03:22:09;100732.28;;;17.28;46.38
60725;BME280;59881;36.722;-4.462;2022-10-16T03:24:34;99941.88;;;12.46;46.51
60725;BME280;59881;36.722;-4.462;2022-10-16T03:27:00;100779.22;;;17.29;46.92
60725;BME280;59881;36.722;-4.462;2022-10-16T03:29:26;100194.00;;;13.68;46.52
60725;BME280;59881;36.722;-4.462;2022-10-16T03:31:53;100873.81;;;17.33;46.57
60725;BME280;59881;36.722;-4.462;2022-10-16T03:34:18;100882.25;;;17.38;46.21
60725;BME280;59881;36.722;-4.462;2022-10-16T03:36:44;100458.19;;;15.67;46.01
60725;BME280;59881;36.722;-4.462;2022-10-16T03:39:09;100845.50;;;17.42;46.16
60725;BME280;59881;36.722;-4.462;2022-10-16T03:41:35;100852.53;;;17.43;46.08
60725;BME280;59881;36.722;-4.462;2022-10-16T03:44:00;100523.47;;;16.18;45.45
60725;BME280;59881;36.722;-4.462;2022-10-16T03:46:26;100339.50;;;15.10;45.44
60725;BME280;59881;36.722;-4.462;2022-10-16T03:48:51;100444.97;;;15.77;45.10
60725;BME280;59881;36.722;-4.462;2022-10-16T03:51:17;100633.94;;;16.60;44.77
60725;BME280;59881;36.722;-4.462;2022-10-16T03:53:42;100733.38;;;17.72;44.60
60725;BME280;59881;36.722;-4.462;2022-10-16T03:56:08;100749.34;;;17.82;44.31
60725;BME280;59881;36.722;-4.462;2022-10-16T03:58:33;100898.84;;;17.89;44.16
60725;BME280;59881;36.722;-4.462;2022-10-16T04:00:59;100007.16;;;13.36;44.18
60725;BME280;59881;36.722;-4.462;2022-10-16T04:03:24;100744.25;;;17.89;43.99
60725;BME280;59881;36.722;-4.462;2022-10-16T04:05:50;100440.34;;;15.30;44.33
60725;BME280;59881;36.722;-4.462;2022-10-16T04:08:16;100663.88;;;17.38;44.19
60725;BME280;59881;36.722;-4.462;2022-10-16T04:10:45;100686.38;;;17.53;44.58
60725;BME280;59881;36.722;-4.462;2022-10-16T04:13:11;100755.69;;;17.34;44.17
60725;BME280;59881;36.722;-4.462;2022-10-16T04:15:37;100716.84;;;17.69;43.89
60725;BME280;59881;36.722;-4.462;2022-10-16T04:18:03;100714.03;;;17.70;43.52
60725;BME280;59881;36.722;-4.462;2022-10-16T04:20:29;100754.34;;;17.95;43.19
60725;BME280;59881;36.722;-4.462;2022-10-16T04:22:55;100750.69;;;17.96;42.89
60725;BME280;59881;36.722;-4.462;2022-10-16T04:25:21;99971.00;;;12.96;42.55
60725;BME280;59881;36.722;-4.462;2022-10-16T04:27:47;100761.09;;;17.42;42.74
60725;BME280;59881;36.722;-4.462;2022-10-16T04:30:12;100756.56;;;17.99;42.66
60725;BME280;59881;36.722;-4.462;2022-10-16T04:32:38;100745.19;;;17.97;42.71
60725;BME280;59881;36.722;-4.462;2022-10-16T04:35:03;100741.56;;;17.98;42.38
60725;BME280;59881;36.722;-4.462;2022-10-16T04:37:29;100905.00;;;17.99;42.68
60725;BME280;59881;36.722;-4.462;2022-10-16T04:39:55;99930.66;;;13.04;42.61
60725;BME280;59881;36.722;-4.462;2022-10-16T04:42:20;100443.91;;;16.17;42.73
60725;BME280;59881;36.722;-4.462;2022-10-16T04:44:46;100781.09;;;18.03;42.25
60725;BME280;59881;36.722;-4.462;2022-10-16T04:47:12;100472.22;;;16.35;42.51
60725;BME280;59881;36.722;-4.462;2022-10-16T04:49:38;100342.81;;;14.74;42.15
60725;BME280;59881;36.722;-4.462;2022-10-16T04:52:04;100742.78;;;18.04;42.56
60725;BME280;59881;36.722;-4.462;2022-10-16T04:54:30;100742.94;;;18.03;43.24
60725;BME280;59881;36.722;-4.462;2022-10-16T04:56:55;100854.03;;;18.02;43.14
60725;BME280;59881;36.722;-4.462;2022-10-16T04:59:22;100750.78;;;18.04;43.56
60725;BME280;59881;36.722;-4.462;2022-10-16T05:01:48;100561.25;;;16.88;43.73
60725;BME280;59881;36.722;-4.462;2022-10-16T05:04:14;100699.44;;;17.74;44.07
60725;BME280;59881;36.722;-4.462;2022-10-16T05:06:40;100755.41;;;18.02;44.26
60725;BME280;59881;36.722;-4.462;2022-10-16T05:09:07;100757.56;;;17.98;44.57
60725;BME280;59881;36.722;-4.462;2022-10-16T05:11:33;100165.00;;;14.36;44.55
60725;BME280;59881;36.722;-4.462;2022-10-16T05:13:59;100215.22;;;14.38;44.87
60725;BME280;59881;36.722;-4.462;2022-10-16T05:16:25;100402.31;;;15.49;44.64
60725;BME280;59881;36.722;-4.462;2022-10-16T05:18:51;100442.97;;;15.49;44.79
60725;BME280;59881;36.722;-4.462;2022-10-16T05:21:17;100866.78;;;18.08;44.30
60725;BME280;59881;36.722;-4.462;2022-10-16T05:23:42;100885.88;;;18.13;44.41
60725;BME280;59881;36.722;-4.462;2022-10-16T05:26:08;100968.41;;;17.95;44.23
60725;BME280;59881;36.722;-4.462;2022-10-16T05:28:34;100085.63;;;13.26;43.96
60725;BME280;59881;36.722;-4.462;2022-10-16T05:31:04;99736.50;;;11.06;43.49
60725;BME280;59881;36.722;-4.462;2022-10-16T05:33:29;100795.91;;;18.15;43.35
60725;BME280;59881;36.722;-4.462;2022-10-16T05:35:55;100520.81;;;15.60;43.04
60725;BME280;59881;36.722;-4.462;2022-10-16T05:38:20;100819.00;;;17.97;43.02
60725;BME280;59881;36.722;-4.462;2022-10-16T05:40:53;100777.81;;;17.82;43.11
60725;BME280;59881;36.722;-4.462;2022-10-16T05:43:19;100937.00;;;17.70;43.38
60725;BME280;59881;36.722;-4.462;2022-10-16T05:45:45;100174.84;;;13.85;43.38
60725;BME280;59881;36.722;-4.462;2022-10-16T05:48:18;100062.22;;;12.81;43.54
60725;BME280;59881;36.722;-4.462;2022-10-16T05:50:43;100616.06;;;16.23;44.00
60725;BME280;59881;36.722;-4.462;2022-10-16T05:53:09;100357.91;;;14.33;43.84
60725;BME280;59881;36.722;-4.462;2022-10-16T05:55:34;100656.03;;;15.42;44.20
60725;BME280;59881;36.722;-4.462;2022-10-16T05:58:00;100820.94;;;16.41;44.00
60725;BME280;59881;36.722;-4.462;2022-10-16T06:00:25;100596.28;;;15.67;44.48
60725;BME280;59881;36.722;-4.462;2022-10-16T06:02:51;100591.34;;;14.72;44.29
60725;BME280;59881;36.722;-4.462;2022-10-16T06:05:16;99866.13;;;11.11;44.73
60725;BME280;59881;36.722;-4.462;2022-10-16T06:07:42;100440.81;;;14.54;44.79
60725;BME280;59881;36.722;-4.462;2022-10-16T06:10:07;100826.22;;;16.81;45.13
60725;BME280;59881;36.722;-4.462;2022-10-16T06:12:34;100026.56;;;11.59;45.16
60725;BME280;59881;36.722;-4.462;2022-10-16T06:14:59;100867.41;;;16.96;45.42
60725;BME280;59881;36.722;-4.462;2022-10-16T06:17:25;100536.28;;;14.85;45.38
60725;BME280;59881;36.722;-4.462;2022-10-16T06:19:50;100864.88;;;16.95;45.61
60725;BME280;59881;36.722;-4.462;2022-10-16T06:22:16;100861.66;;;16.91;45.47
60725;BME280;59881;36.722;-4.462;2022-10-16T06:24:41;100969.06;;;16.90;45.67
60725;BME280;59881;36.722;-4.462;2022-10-16T06:27:07;101082.97;;;16.96;45.80
60725;BME280;59881;36.722;-4.462;2022-10-16T06:29:32;100901.28;;;17.04;45.48
60725;BME280;59881;36.722;-4.462;2022-10-16T06:31:58;99919.81;;;11.10;46.34
60725;BME280;59881;36.722;-4.462;2022-10-16T06:34:23;100704.34;;;16.26;46.29
60725;BME280;59881;36.722;-4.462;2022-10-16T06:36:49;100364.78;;;13.41;46.39
60725;BME280;59881;36.722;-4.462;2022-10-16T06:39:14;100426.13;;;14.71;46.60
60725;BME280;59881;36.722;-4.462;2022-10-16T06:41:40;99198.53;;;3.70;45.81
60725;BME280;59881;36.722;-4.462;2022-10-16T06:44:06;100779.81;;;16.64;45.53
60725;BME280;59881;36.722;-4.462;2022-10-16T06:46:33;100423.06;;;14.14;44.80
60725;BME280;59881;36.722;-4.462;2022-10-16T06:48:58;100686.28;;;16.69;44.43
60725;BME280;59881;36.722;-4.462;2022-10-16T06:51:24;101064.09;;;17.98;44.07
60725;BME280;59881;36.722;-4.462;2022-10-16T06:53:54;100981.16;;;18.11;43.86
60725;BME280;59881;36.722;-4.462;2022-10-16T06:56:26;100865.81;;;18.37;43.40
60725;BME280;59881;36.722;-4.462;2022-10-16T06:58:52;100937.16;;;18.63;43.15
60725;BME280;59881;36.722;-4.462;2022-10-16T07:01:21;100466.97;;;16.53;42.70
60725;BME280;59881;36.722;-4.462;2022-10-16T07:03:46;100933.78;;;19.16;42.01
60725;BME280;59881;36.722;-4.462;2022-10-16T07:06:14;100665.09;;;18.17;42.32
60725;BME280;59881;36.722;-4.462;2022-10-16T07:08:43;100542.56;;;17.53;42.50
60725;BME280;59881;36.722;-4.462;2022-10-16T07:11:11;100861.34;;;19.63;42.25
60725;BME280;59881;36.722;-4.462;2022-10-16T07:13:39;100714.56;;;18.65;42.48
60725;BME280;59881;36.722;-4.462;2022-10-16T07:16:07;100937.75;;;20.18;42.01
60725;BME280;59881;36.722;-4.462;2022-10-16T07:18:33;100857.41;;;19.49;41.40
60725;BME280;59881;36.722;-4.462;2022-10-16T07:21:12;99507.56;;;12.39;40.57
60725;BME280;59881;36.722;-4.462;2022-10-16T07:23:38;100155.31;;;16.86;40.03
60725;BME280;59881;36.722;-4.462;2022-10-16T07:26:04;100714.84;;;19.58;39.43
60725;BME280;59881;36.722;-4.462;2022-10-16T07:28:31;100869.47;;;21.23;39.47
60725;BME280;59881;36.722;-4.462;2022-10-16T07:31:04;100707.38;;;20.13;39.07
60725;BME280;59881;36.722;-4.462;2022-10-16T07:33:31;100879.69;;;21.28;39.28
60725;BME280;59881;36.722;-4.462;2022-10-16T07:35:57;100708.88;;;20.23;39.13
60725;BME280;59881;36.722;-4.462;2022-10-16T07:38:23;100892.75;;;21.39;38.80
60725;BME280;59881;36.722;-4.462;2022-10-16T07:41:05;100818.22;;;20.85;38.95
60725;BME280;59881;36.722;-4.462;2022-10-16T07:43:33;100769.69;;;20.72;38.72
60725;BME280;59881;36.722;-4.462;2022-10-16T07:45:58;100654.06;;;20.11;38.27
60725;BME280;59881;36.722;-4.462;2022-10-16T07:48:27;100736.84;;;20.54;38.23
60725;BME280;59881;36.722;-4.462;2022-10-16T07:51:00;100383.38;;;17.91;38.26
60725;BME280;59881;36.722;-4.462;2022-10-16T07:53:27;100992.81;;;21.73;37.57
60725;BME280;59881;36.722;-4.462;2022-10-16T07:55:56;100777.06;;;20.62;37.34
60725;BME280;59881;36.722;-4.462;2022-10-16T07:58:23;100995.81;;;21.61;37.52
60725;BME280;59881;36.722;-4.462;2022-10-16T08:00:48;100368.25;;;17.30;37.65
60725;BME280;59881;36.722;-4.462;2022-10-16T08:03:14;101081.75;;;21.09;38.37
60725;BME280;59881;36.722;-4.462;2022-10-16T08:05:40;100607.34;;;17.72;38.09
60725;BME280;59881;36.722;-4.462;2022-10-16T08:08:05;100973.91;;;19.78;38.77
60725;BME280;59881;36.722;-4.462;2022-10-16T08:10:31;100973.38;;;19.56;39.31
60725;BME280;59881;36.722;-4.462;2022-10-16T08:12:57;101043.78;;;19.83;39.21
60725;BME280;59881;36.722;-4.462;2022-10-16T08:15:22;101055.75;;;19.61;39.62
60725;BME280;59881;36.722;-4.462;2022-10-16T08:17:56;101110.44;;;19.67;39.40
60725;BME280;59881;36.722;-4.462;2022-10-16T08:20:22;101214.28;;;19.89;39.82
60725;BME280;59881;36.722;-4.462;2022-10-16T08:22:48;101140.56;;;19.59;40.02
60725;BME280;59881;36.722;-4.462;2022-10-16T08:25:13;100743.13;;;17.07;40.40
60725;BME280;59881;36.722;-4.462;2022-10-16T08:27:39;101167.47;;;19.57;40.26
60725;BME280;59881;36.722;-4.462;2022-10-16T08:30:05;101060.38;;;18.95;40.11
60725;BME280;59881;36.722;-4.462;2022-10-16T08:32:31;101059.25;;;18.98;40.56
60725;BME280;59881;36.722;-4.462;2022-10-16T08:34:56;101129.16;;;19.39;40.55
60725;BME280;59881;36.722;-4.462;2022-10-16T08:37:22;101000.19;;;18.73;40.27
60725;BME280;59881;36.722;-4.462;2022-10-16T08:39:48;101104.22;;;19.48;40.14
60725;BME280;59881;36.722;-4.462;2022-10-16T08:48:03;101131.03;;;20.02;39.92
60725;BME280;59881;36.722;-4.462;2022-10-16T08:50:33;101096.88;;;19.96;39.75
60725;BME280;59881;36.722;-4.462;2022-10-16T08:53:03;100858.78;;;18.18;39.69
60725;BME280;59881;36.722;-4.462;2022-10-16T08:55:49;101089.28;;;20.27;40.55
60725;BME280;59881;36.722;-4.462;2022-10-16T08:58:20;101074.75;;;20.30;39.53
60725;BME280;59881;36.722;-4.462;2022-10-16T09:00:57;101075.13;;;20.35;40.44
60725;BME280;59881;36.722;-4.462;2022-10-16T09:16:18;101024.88;;;20.73;41.28
60725;BME280;59881;36.722;-4.462;2022-10-16T09:21:42;100831.16;;;19.97;40.44
60725;BME280;59881;36.722;-4.462;2022-10-16T09:24:27;100926.22;;;21.02;39.64
60725;BME280;59881;36.722;-4.462;2022-10-16T09:26:53;100915.88;;;21.32;39.00
60725;BME280;59881;36.722;-4.462;2022-10-16T09:29:20;100938.81;;;21.76;38.99
60725;BME280;59881;36.722;-4.462;2022-10-16T09:31:46;100939.28;;;22.12;38.21
60725;BME280;59881;36.722;-4.462;2022-10-16T09:36:47;100936.66;;;22.51;39.06
60725;BME280;59881;36.722;-4.462;2022-10-16T09:39:12;100912.88;;;22.40;40.21
60725;BME280;59881;36.722;-4.462;2022-10-16T09:41:44;101012.84;;;22.42;41.46
60725;BME280;59881;36.722;-4.462;2022-10-16T09:47:04;100973.78;;;22.40;42.66
60725;BME280;59881;36.722;-4.462;2022-10-16T09:49:30;100961.88;;;23.13;41.73
60725;BME280;59881;36.722;-4.462;2022-10-16T09:52:14;100926.63;;;25.03;38.45
60725;BME280;59881;36.722;-4.462;2022-10-16T09:54:51;100945.91;;;26.20;36.27
60725;BME280;59881;36.722;-4.462;2022-10-16T09:57:16;100890.53;;;25.96;37.01
60725;BME280;59881;36.722;-4.462;2022-10-16T09:59:50;100936.91;;;26.48;35.75
60725;BME280;59881;36.722;-4.462;2022-10-16T10:02:18;100429.91;;;23.20;35.65
60725;BME280;59881;36.722;-4.462;2022-10-16T10:04:50;100929.63;;;26.07;36.30
60725;BME280;59881;36.722;-4.462;2022-10-16T10:07:24;100864.13;;;25.64;35.80
60725;BME280;59881;36.722;-4.462;2022-10-16T10:09:52;100957.72;;;25.63;35.72
60725;BME280;59881;36.722;-4.462;2022-10-16T10:12:27;100547.16;;;23.06;35.80
60725;BME280;59881;36.722;-4.462;2022-10-16T10:14:56;100886.56;;;24.78;36.44
60725;BME280;59881;36.722;-4.462;2022-10-16T10:17:27;100882.03;;;24.64;36.09
60725;BME280;59881;36.722;-4.462;2022-10-16T10:22:39;100907.22;;;25.57;35.10
60725;BME280;59881;36.722;-4.462;2022-10-16T10:27:56;100900.09;;;28.67;30.19
60725;BME280;59881;36.722;-4.462;2022-10-16T10:36:35;100890.25;;;32.55;23.24
60725;BME280;59881;36.722;-4.462;2022-10-16T10:42:08;100937.59;;;28.77;26.48
60725;BME280;59881;36.722;-4.462;2022-10-16T10:53:11;100961.03;;;25.87;32.13
60725;BME280;59881;36.722;-4.462;2022-10-16T10:55:59;100971.00;;;25.65;32.36
60725;BME280;59881;36.722;-4.462;2022-10-16T11:01:13;100978.22;;;25.36;33.91
60725;BME280;59881;36.722;-4.462;2022-10-16T11:09:24;100907.31;;;24.63;34.72
60725;BME280;59881;36.722;-4.462;2022-10-16T11:12:04;100947.41;;;24.87;34.75
60725;BME280;59881;36.722;-4.462;2022-10-16T11:17:22;100982.84;;;24.54;34.88
60725;BME280;59881;36.722;-4.462;2022-10-16T11:20:13;100914.84;;;24.67;35.34
60725;BME280;59881;36.722;-4.462;2022-10-16T11:22:46;100906.28;;;24.64;35.99
60725;BME280;59881;36.722;-4.462;2022-10-16T11:27:46;100864.97;;;24.56;36.05
60725;BME280;59881;36.722;-4.462;2022-10-16T11:30:20;100555.84;;;22.63;36.15
60725;BME280;59881;36.722;-4.462;2022-10-16T11:35:51;100487.13;;;23.57;34.25
60725;BME280;59881;36.722;-4.462;2022-10-16T11:38:36;100828.00;;;26.48;33.40
60725;BME280;59881;36.722;-4.462;2022-10-16T11:41:27;100876.59;;;27.16;32.64
60725;BME280;59881;36.722;-4.462;2022-10-16T11:46:24;100896.59;;;28.01;31.68
60725;BME280;59881;36.722;-4.462;2022-10-16T11:49:02;100803.94;;;27.79;30.27
60725;BME280;59881;36.722;-4.462;2022-10-16T11:51:54;100904.97;;;28.52;30.43
60725;BME280;59881;36.722;-4.462;2022-10-16T11:56:43;100883.91;;;28.54;29.44
60725;BME280;59881;36.722;-4.462;2022-10-16T11:59:33;100880.84;;;28.82;29.50
60725;BME280;59881;36.722;-4.462;2022-10-16T12:05:19;100842.38;;;28.98;28.80
60725;BME280;59881;36.722;-4.462;2022-10-16T12:10:33;100450.31;;;26.96;28.77
60725;BME280;59881;36.722;-4.462;2022-10-16T12:13:04;100647.19;;;28.16;28.51
60725;BME280;59881;36.722;-4.462;2022-10-16T12:15:32;100849.91;;;29.21;27.97
60725;BME280;59881;36.722;-4.462;2022-10-16T12:17:59;100804.81;;;28.95;28.05
60725;BME280;59881;36.722;-4.462;2022-10-16T12:20:32;100860.25;;;28.74;28.41
60725;BME280;59881;36.722;-4.462;2022-10-16T12:23:00;100781.97;;;28.53;28.54
60725;BME280;59881;36.722;-4.462;2022-10-16T12:25:30;100780.72;;;28.17;31.62
60725;BME280;59881;36.722;-4.462;2022-10-16T12:28:03;100638.50;;;26.91;34.52
60725;BME280;59881;36.722;-4.462;2022-10-16T12:30:32;100715.44;;;27.01;36.17
60725;BME280;59881;36.722;-4.462;2022-10-16T12:33:00;100775.53;;;26.97;37.83
60725;BME280;59881;36.722;-4.462;2022-10-16T12:35:43;100829.59;;;26.83;38.27
60725;BME280;59881;36.722;-4.462;2022-10-16T12:38:24;100756.38;;;26.72;38.97
60725;BME280;59881;36.722;-4.462;2022-10-16T12:41:05;100393.06;;;24.20;38.19
60725;BME280;59881;36.722;-4.462;2022-10-16T12:43:46;100728.53;;;26.71;38.27
60725;BME280;59881;36.722;-4.462;2022-10-16T12:48:41;100433.25;;;25.04;37.04
60725;BME280;59881;36.722;-4.462;2022-10-16T12:51:35;100705.81;;;27.45;36.52
60725;BME280;59881;36.722;-4.462;2022-10-16T12:54:04;100704.25;;;27.63;36.16
60725;BME280;59881;36.722;-4.462;2022-10-16T12:59:48;100728.31;;;28.36;35.10
60725;BME280;59881;36.722;-4.462;2022-10-16T13:10:45;100678.78;;;28.79;34.85
60725;BME280;59881;36.722;-4.462;2022-10-16T13:13:56;100678.03;;;28.72;34.77
60725;BME280;59881;36.722;-4.462;2022-10-16T13:21:57;100680.94;;;28.71;35.44
60725;BME280;59881;36.722;-4.462;2022-10-16T13:30:17;100355.34;;;27.18;34.39
60725;BME280;59881;36.722;-4.462;2022-10-16T13:33:04;100517.06;;;28.30;33.65
60725;BME280;59881;36.722;-4.462;2022-10-16T13:35:34;100675.53;;;29.33;33.47
60725;BME280;59881;36.722;-4.462;2022-10-16T13:38:13;100681.72;;;29.21;33.14
60725;BME280;59881;36.722;-4.462;2022-10-16T13:40:50;100343.50;;;26.87;33.37
60725;BME280;59881;36.722;-4.462;2022-10-16T13:43:29;100681.94;;;28.76;33.54
60725;BME280;59881;36.722;-4.462;2022-10-16T13:46:01;100672.81;;;28.71;33.49
60725;BME280;59881;36.722;-4.462;2022-10-16T13:48:27;100670.91;;;28.71;33.14
60725;BME280;59881;36.722;-4.462;2022-10-16T13:51:13;100642.72;;;28.79;32.84
60725;BME280;59881;36.722;-4.462;2022-10-16T13:53:39;100628.06;;;29.05;31.90
60725;BME280;59881;36.722;-4.462;2022-10-16T13:56:10;100639.88;;;29.47;31.40
60725;BME280;59881;36.722;-4.462;2022-10-16T13:58:36;100509.03;;;28.97;31.28
60725;BME280;59881;36.722;-4.462;2022-10-16T14:01:15;100645.16;;;29.91;31.22
60725;BME280;59881;36.722;-4.462;2022-10-16T14:03:41;100641.50;;;29.85;31.69
60725;BME280;59881;36.722;-4.462;2022-10-16T14:06:15;100359.56;;;27.89;31.39
60725;BME280;59881;36.722;-4.462;2022-10-16T14:08:44;100656.16;;;29.47;31.72
60725;BME280;59881;36.722;-4.462;2022-10-16T14:11:12;100635.13;;;29.06;29.80
60725;BME280;59881;36.722;-4.462;2022-10-16T14:13:40;100623.75;;;28.79;29.30
60725;BME280;59881;36.722;-4.462;2022-10-16T14:16:18;100631.88;;;28.54;28.63
60725;BME280;59881;36.722;-4.462;2022-10-16T14:19:19;100651.16;;;28.39;29.05
60725;BME280;59881;36.722;-4.462;2022-10-16T14:21:45;100613.88;;;28.09;29.37
60725;BME280;59881;36.722;-4.462;2022-10-16T14:26:53;100775.16;;;27.98;30.49
60725;BME280;59881;36.722;-4.462;2022-10-16T14:29:21;100562.06;;;27.35;31.48
60725;BME280;59881;36.722;-4.462;2022-10-16T14:32:04;100606.28;;;27.54;31.93
60725;BME280;59881;36.722;-4.462;2022-10-16T14:34:35;100636.03;;;27.61;32.48
60725;BME280;59881;36.722;-4.462;2022-10-16T14:37:25;100613.53;;;27.02;33.30
60725;BME280;59881;36.722;-4.462;2022-10-16T14:39:52;100288.16;;;24.40;35.95
60725;BME280;59881;36.722;-4.462;2022-10-16T14:42:20;100797.44;;;26.40;39.00
60725;BME280;59881;36.722;-4.462;2022-10-16T14:44:49;100733.69;;;25.85;41.90
60725;BME280;59881;36.722;-4.462;2022-10-16T14:47:20;100538.44;;;24.26;44.38
60725;BME280;59881;36.722;-4.462;2022-10-16T14:49:49;100711.78;;;24.96;46.19
60725;BME280;59881;36.722;-4.462;2022-10-16T14:52:15;100721.25;;;24.86;47.05
60725;BME280;59881;36.722;-4.462;2022-10-16T14:54:41;100428.69;;;23.01;47.44